createdAt,value
2019-02-20T00:00:12.731Z,7.00
2019-02-20T00:00:50.231Z,7.10
2019-02-20T00:01:26.656Z,7.10
2019-02-20T00:02:02.443Z,7.10
2019-02-20T00:02:38.495Z,7.10
2019-02-20T00:03:14.379Z,7.10
2019-02-20T00:03:49.971Z,7.10
2019-02-20T00:04:25.882Z,7.10
2019-02-20T00:05:02.424Z,7.10
2019-02-20T00:05:38.047Z,7.10
2019-02-20T00:06:13.605Z,7.10
2019-02-20T00:06:49.527Z,7.10
2019-02-20T00:07:25.116Z,7.10
2019-02-20T00:08:00.709Z,7.10
2019-02-20T00:08:36.319Z,7.10
2019-02-20T00:09:11.926Z,7.10
2019-02-20T00:09:47.543Z,7.10
2019-02-20T00:10:23.420Z,7.10
2019-02-20T00:10:58.990Z,7.10
2019-02-20T00:11:34.586Z,7.10
2019-02-20T00:12:10.385Z,7.10
2019-02-20T00:12:46.040Z,7.10
2019-02-20T00:13:21.939Z,7.10
2019-02-20T00:13:57.482Z,7.10
2019-02-20T00:14:33.132Z,7.10
2019-02-20T00:15:08.710Z,7.10
2019-02-20T00:15:44.238Z,7.10
2019-02-20T00:16:19.767Z,7.10
2019-02-20T00:16:56.397Z,7.10
2019-02-20T00:17:32.266Z,7.10
2019-02-20T00:18:08.162Z,7.00
2019-02-20T00:18:43.710Z,7.00
2019-02-20T00:19:20.306Z,7.00
2019-02-20T00:19:55.992Z,7.00
2019-02-20T00:20:31.584Z,7.00
2019-02-20T00:21:07.190Z,7.00
2019-02-20T00:21:42.833Z,7.00
2019-02-20T00:22:18.432Z,7.00
2019-02-20T00:22:54.274Z,7.00
2019-02-20T00:23:29.840Z,7.00
2019-02-20T00:24:05.726Z,7.00
2019-02-20T00:24:41.330Z,7.00
2019-02-20T00:25:16.875Z,7.00
2019-02-20T00:25:52.434Z,7.00
2019-02-20T00:26:27.993Z,7.00
2019-02-20T00:27:03.743Z,7.00
2019-02-20T00:27:39.642Z,7.00
2019-02-20T00:28:16.569Z,7.00
2019-02-20T00:28:52.452Z,7.00
2019-02-20T00:29:28.317Z,7.00
2019-02-20T00:30:04.250Z,7.00
2019-02-20T00:30:40.333Z,7.00
2019-02-20T00:31:15.935Z,7.00
2019-02-20T00:31:51.810Z,7.00
2019-02-20T00:32:27.347Z,7.00
2019-02-20T00:33:02.961Z,7.00
2019-02-20T00:33:38.760Z,7.00
2019-02-20T00:34:14.322Z,7.00
2019-02-20T00:34:50.142Z,7.00
2019-02-20T00:35:26.834Z,7.00
2019-02-20T00:36:02.406Z,6.90
2019-02-20T00:36:38.199Z,6.90
2019-02-20T00:37:13.722Z,7.00
2019-02-20T00:37:49.597Z,6.90
2019-02-20T00:38:25.208Z,6.90
2019-02-20T00:39:00.745Z,6.90
2019-02-20T00:39:37.973Z,6.90
2019-02-20T00:40:13.939Z,6.90
2019-02-20T00:40:49.525Z,6.90
2019-02-20T00:41:25.056Z,6.90
2019-02-20T00:42:00.709Z,6.90
2019-02-20T00:42:36.357Z,6.90
2019-02-20T00:43:11.891Z,6.90
2019-02-20T00:43:59.156Z,6.90
2019-02-20T00:44:46.787Z,6.90
2019-02-20T00:45:33.925Z,6.90
2019-02-20T00:46:33.476Z,6.90
2019-02-20T00:47:28.470Z,6.90
2019-02-20T00:48:29.478Z,6.90
2019-02-20T00:49:15.373Z,6.90
2019-02-20T00:49:51.597Z,6.90
2019-02-20T00:50:28.922Z,6.90
2019-02-20T00:51:36.046Z,6.90
2019-02-20T00:52:20.529Z,6.90
2019-02-20T00:53:10.159Z,6.90
2019-02-20T00:53:50.552Z,6.90
2019-02-20T00:54:26.515Z,6.90
2019-02-20T00:55:02.076Z,6.90
2019-02-20T00:55:37.774Z,6.90
2019-02-20T00:56:13.394Z,6.90
2019-02-20T00:56:48.939Z,6.90
2019-02-20T00:57:24.525Z,6.90
2019-02-20T00:58:00.190Z,6.90
2019-02-20T00:58:35.885Z,6.90
2019-02-20T00:59:11.487Z,6.90
2019-02-20T00:59:47.454Z,6.90
2019-02-20T01:00:23.066Z,7.00
2019-02-20T01:00:58.613Z,6.90
2019-02-20T01:01:34.414Z,7.00
2019-02-20T01:02:09.986Z,7.00
2019-02-20T01:02:45.506Z,7.00
2019-02-20T01:03:21.509Z,7.00
2019-02-20T01:03:57.323Z,7.00
2019-02-20T01:04:33.223Z,7.00
2019-02-20T01:05:09.627Z,7.00
2019-02-20T01:05:45.305Z,7.00
2019-02-20T01:06:21.531Z,7.00
2019-02-20T01:06:57.361Z,7.00
2019-02-20T01:07:33.001Z,7.00
2019-02-20T01:08:08.637Z,7.00
2019-02-20T01:08:45.165Z,6.90
2019-02-20T01:09:20.779Z,7.00
2019-02-20T01:09:56.354Z,7.00
2019-02-20T01:10:32.286Z,7.00
2019-02-20T01:11:07.826Z,7.00
2019-02-20T01:11:43.685Z,7.00
2019-02-20T01:12:19.244Z,7.00
2019-02-20T01:12:55.083Z,7.00
2019-02-20T01:13:30.715Z,7.00
2019-02-20T01:14:06.613Z,7.00
2019-02-20T01:14:42.170Z,7.00
2019-02-20T01:15:18.017Z,7.00
2019-02-20T01:15:53.838Z,7.00
2019-02-20T01:16:29.392Z,7.00
2019-02-20T01:17:04.943Z,7.00
2019-02-20T01:17:40.927Z,7.00
2019-02-20T01:18:16.559Z,7.00
2019-02-20T01:18:52.231Z,7.00
2019-02-20T01:19:27.770Z,7.00
2019-02-20T01:20:04.066Z,7.00
2019-02-20T01:20:39.597Z,7.00
2019-02-20T01:21:15.151Z,7.00
2019-02-20T01:21:50.705Z,7.00
2019-02-20T01:22:26.243Z,7.00
2019-02-20T01:23:01.887Z,7.00
2019-02-20T01:23:37.420Z,7.00
2019-02-20T01:24:12.979Z,7.00
2019-02-20T01:24:49.615Z,7.00
2019-02-20T01:25:25.418Z,7.00
2019-02-20T01:26:01.362Z,7.00
2019-02-20T01:26:37.219Z,7.00
2019-02-20T01:27:13.062Z,7.00
2019-02-20T01:27:48.571Z,7.00
2019-02-20T01:28:24.137Z,7.00
2019-02-20T01:28:59.859Z,7.00
2019-02-20T01:29:35.721Z,7.00
2019-02-20T01:30:11.246Z,7.00
2019-02-20T01:30:46.861Z,7.00
2019-02-20T01:31:22.720Z,7.00
2019-02-20T01:31:58.543Z,7.00
2019-02-20T01:32:34.100Z,7.00
2019-02-20T01:33:09.662Z,7.00
2019-02-20T01:33:45.245Z,7.00
2019-02-20T01:34:20.788Z,7.00
2019-02-20T01:34:56.331Z,7.00
2019-02-20T01:35:31.915Z,7.00
2019-02-20T01:36:07.447Z,7.00
2019-02-20T01:36:43.032Z,7.00
2019-02-20T01:37:18.624Z,7.00
2019-02-20T01:37:55.298Z,7.00
2019-02-20T01:38:30.901Z,7.00
2019-02-20T01:39:06.775Z,7.00
2019-02-20T01:39:42.475Z,7.00
2019-02-20T01:40:18.007Z,7.00
2019-02-20T01:40:53.864Z,7.00
2019-02-20T01:41:30.375Z,7.00
2019-02-20T01:42:05.993Z,7.00
2019-02-20T01:42:41.538Z,7.00
2019-02-20T01:43:17.117Z,7.00
2019-02-20T01:43:52.692Z,7.00
2019-02-20T01:44:28.250Z,7.00
2019-02-20T01:45:04.268Z,7.00
2019-02-20T01:45:39.804Z,7.00
2019-02-20T01:46:15.406Z,7.00
2019-02-20T01:46:51.313Z,7.00
2019-02-20T01:47:27.208Z,7.00
2019-02-20T01:48:02.768Z,7.10
2019-02-20T01:48:38.380Z,7.10
2019-02-20T01:49:13.938Z,7.10
2019-02-20T01:49:49.518Z,7.00
2019-02-20T01:50:25.380Z,7.00
2019-02-20T01:51:00.920Z,7.00
2019-02-20T01:51:36.463Z,7.00
2019-02-20T01:52:11.986Z,7.00
2019-02-20T01:52:47.838Z,7.00
2019-02-20T01:53:23.408Z,7.00
2019-02-20T01:53:58.982Z,7.00
2019-02-20T01:54:34.525Z,7.00
2019-02-20T01:55:10.055Z,7.10
2019-02-20T01:55:45.905Z,7.10
2019-02-20T01:56:21.959Z,7.10
2019-02-20T01:56:57.513Z,7.10
2019-02-20T01:57:33.201Z,7.10
2019-02-20T01:58:09.058Z,7.10
2019-02-20T01:58:44.721Z,7.10
2019-02-20T01:59:20.386Z,7.00
2019-02-20T01:59:56.294Z,7.10
2019-02-20T02:00:31.959Z,7.00
2019-02-20T02:01:07.813Z,7.00
2019-02-20T02:01:43.472Z,7.00
2019-02-20T02:02:19.381Z,7.00
2019-02-20T02:02:55.501Z,7.00
2019-02-20T02:03:31.077Z,7.00
2019-02-20T02:04:06.954Z,7.00
2019-02-20T02:04:42.490Z,7.00
2019-02-20T02:05:18.043Z,7.00
2019-02-20T02:05:53.854Z,7.00
2019-02-20T02:06:29.427Z,7.00
2019-02-20T02:07:05.219Z,7.00
2019-02-20T02:07:40.874Z,7.00
2019-02-20T02:08:16.686Z,7.00
2019-02-20T02:08:52.553Z,7.00
2019-02-20T02:09:28.090Z,7.00
2019-02-20T02:10:03.801Z,7.00
2019-02-20T02:10:39.922Z,7.00
2019-02-20T02:11:15.522Z,7.00
2019-02-20T02:11:51.636Z,7.00
2019-02-20T02:12:27.175Z,7.00
2019-02-20T02:13:02.955Z,7.00
2019-02-20T02:13:38.765Z,7.00
2019-02-20T02:14:14.307Z,7.00
2019-02-20T02:14:49.983Z,7.00
2019-02-20T02:15:25.515Z,7.00
2019-02-20T02:16:01.066Z,7.00
2019-02-20T02:16:36.927Z,7.00
2019-02-20T02:17:12.462Z,7.00
2019-02-20T02:17:48.290Z,7.00
2019-02-20T02:18:24.134Z,7.00
2019-02-20T02:18:59.671Z,7.00
2019-02-20T02:19:35.205Z,7.00
2019-02-20T02:20:10.751Z,7.00
2019-02-20T02:20:47.206Z,7.00
2019-02-20T02:21:22.743Z,7.00
2019-02-20T02:21:58.292Z,7.00
2019-02-20T02:22:33.873Z,7.00
2019-02-20T02:23:09.723Z,7.00
2019-02-20T02:23:47.617Z,7.00
2019-02-20T02:24:22.859Z,7.00
2019-02-20T02:24:58.391Z,7.00
2019-02-20T02:25:34.474Z,7.00
2019-02-20T02:26:11.054Z,7.00
2019-02-20T02:26:47.031Z,7.00
2019-02-20T02:27:22.593Z,7.00
2019-02-20T02:27:58.758Z,7.00
2019-02-20T02:28:34.330Z,7.00
2019-02-20T02:29:10.241Z,7.00
2019-02-20T02:29:45.900Z,6.90
2019-02-20T02:30:21.436Z,7.00
2019-02-20T02:30:56.977Z,7.00
2019-02-20T02:31:32.868Z,6.90
2019-02-20T02:32:08.417Z,6.90
2019-02-20T02:32:43.955Z,6.90
2019-02-20T02:33:19.503Z,6.90
2019-02-20T02:33:55.059Z,6.90
2019-02-20T02:34:30.666Z,6.90
2019-02-20T02:35:06.289Z,6.90
2019-02-20T02:35:42.447Z,6.90
2019-02-20T02:36:18.048Z,6.90
2019-02-20T02:36:53.622Z,6.90
2019-02-20T02:37:29.196Z,6.90
2019-02-20T02:38:04.758Z,6.90
2019-02-20T02:38:40.314Z,6.90
2019-02-20T02:39:15.857Z,6.90
2019-02-20T02:39:51.402Z,7.00
2019-02-20T02:40:26.974Z,6.90
2019-02-20T02:41:02.548Z,6.90
2019-02-20T02:41:38.150Z,6.90
2019-02-20T02:42:14.777Z,6.90
2019-02-20T02:42:50.356Z,6.90
2019-02-20T02:43:25.897Z,6.90
2019-02-20T02:44:01.481Z,6.90
2019-02-20T02:44:37.078Z,6.90
2019-02-20T02:45:12.619Z,6.90
2019-02-20T02:45:48.228Z,6.90
2019-02-20T02:46:24.107Z,6.90
2019-02-20T02:46:59.650Z,6.90
2019-02-20T02:47:35.246Z,6.90
2019-02-20T02:48:10.766Z,6.90
2019-02-20T02:48:46.345Z,6.90
2019-02-20T02:49:21.976Z,6.90
2019-02-20T02:49:57.905Z,6.90
2019-02-20T02:50:33.546Z,6.90
2019-02-20T02:51:09.137Z,6.90
2019-02-20T02:51:44.671Z,6.80
2019-02-20T02:52:20.242Z,6.80
2019-02-20T02:52:55.770Z,6.80
2019-02-20T02:53:31.342Z,6.80
2019-02-20T02:54:07.133Z,6.80
2019-02-20T02:54:42.694Z,6.80
2019-02-20T02:55:18.322Z,6.80
2019-02-20T02:55:53.985Z,6.80
2019-02-20T02:56:29.551Z,6.80
2019-02-20T02:57:05.152Z,6.80
2019-02-20T02:57:41.140Z,6.80
2019-02-20T02:58:16.751Z,6.80
2019-02-20T02:58:52.957Z,6.80
2019-02-20T02:59:28.576Z,6.80
2019-02-20T03:00:04.661Z,6.80
2019-02-20T03:00:40.831Z,6.70
2019-02-20T03:01:16.414Z,6.80
2019-02-20T03:01:52.025Z,6.80
2019-02-20T03:02:27.564Z,6.80
2019-02-20T03:03:03.094Z,6.70
2019-02-20T03:03:39.107Z,6.70
2019-02-20T03:04:14.670Z,6.70
2019-02-20T03:04:50.304Z,6.80
2019-02-20T03:05:25.847Z,6.70
2019-02-20T03:06:01.441Z,6.80
2019-02-20T03:06:37.019Z,6.80
2019-02-20T03:07:12.560Z,6.80
2019-02-20T03:07:48.152Z,6.80
2019-02-20T03:08:23.789Z,6.80
2019-02-20T03:08:59.478Z,6.80
2019-02-20T03:09:35.055Z,6.70
2019-02-20T03:10:10.594Z,6.80
2019-02-20T03:10:46.134Z,6.70
2019-02-20T03:11:21.721Z,6.80
2019-02-20T03:11:57.436Z,6.70
2019-02-20T03:12:33.054Z,6.70
2019-02-20T03:13:08.595Z,6.70
2019-02-20T03:13:44.708Z,6.70
2019-02-20T03:14:20.600Z,6.70
2019-02-20T03:14:56.134Z,6.80
2019-02-20T03:15:31.809Z,6.70
2019-02-20T03:16:07.655Z,6.70
2019-02-20T03:16:43.216Z,6.70
2019-02-20T03:17:18.814Z,6.70
2019-02-20T03:17:54.397Z,6.70
2019-02-20T03:18:30.240Z,6.80
2019-02-20T03:19:06.747Z,6.80
2019-02-20T03:19:42.395Z,6.70
2019-02-20T03:20:18.002Z,6.80
2019-02-20T03:20:53.547Z,6.70
2019-02-20T03:21:29.415Z,6.80
2019-02-20T03:22:04.966Z,6.70
2019-02-20T03:22:40.517Z,6.70
2019-02-20T03:23:16.067Z,6.70
2019-02-20T03:23:51.756Z,6.70
2019-02-20T03:24:27.333Z,6.70
2019-02-20T03:25:02.883Z,6.70
2019-02-20T03:25:38.443Z,6.70
2019-02-20T03:26:14.959Z,6.70
2019-02-20T03:26:50.513Z,6.70
2019-02-20T03:27:26.078Z,6.70
2019-02-20T03:28:01.874Z,6.70
2019-02-20T03:28:37.431Z,6.70
2019-02-20T03:29:12.982Z,6.70
2019-02-20T03:29:48.525Z,6.70
2019-02-20T03:30:24.157Z,6.70
2019-02-20T03:30:59.686Z,6.70
2019-02-20T03:31:35.225Z,6.70
2019-02-20T03:32:10.860Z,6.70
2019-02-20T03:32:46.508Z,6.70
2019-02-20T03:33:22.747Z,6.70
2019-02-20T03:33:58.712Z,6.70
2019-02-20T03:34:34.326Z,6.70
2019-02-20T03:35:09.957Z,6.70
2019-02-20T03:35:45.567Z,6.70
2019-02-20T03:36:21.223Z,6.70
2019-02-20T03:36:57.121Z,6.70
2019-02-20T03:37:33.646Z,6.70
2019-02-20T03:38:09.187Z,6.70
2019-02-20T03:38:44.729Z,6.70
2019-02-20T03:39:20.392Z,6.70
2019-02-20T03:39:56.035Z,6.70
2019-02-20T03:40:31.666Z,6.70
2019-02-20T03:41:07.585Z,6.70
2019-02-20T03:41:43.144Z,6.70
2019-02-20T03:42:19.117Z,6.70
2019-02-20T03:42:54.682Z,6.70
2019-02-20T03:43:30.421Z,6.70
2019-02-20T03:44:06.057Z,6.70
2019-02-20T03:44:41.712Z,6.70
2019-02-20T03:45:17.252Z,6.70
2019-02-20T03:45:53.905Z,6.70
2019-02-20T03:46:30.438Z,6.70
2019-02-20T03:47:06.446Z,6.70
2019-02-20T03:47:42.312Z,6.70
2019-02-20T03:48:18.499Z,6.70
2019-02-20T03:48:54.027Z,6.70
2019-02-20T03:49:30.570Z,6.70
2019-02-20T03:50:06.135Z,6.70
2019-02-20T03:50:41.731Z,6.70
2019-02-20T03:51:17.318Z,6.70
2019-02-20T03:51:52.889Z,6.70
2019-02-20T03:52:28.450Z,6.70
2019-02-20T03:53:03.990Z,6.70
2019-02-20T03:53:39.933Z,6.70
2019-02-20T03:54:17.056Z,6.70
2019-02-20T03:54:52.594Z,6.70
2019-02-20T03:55:28.437Z,6.70
2019-02-20T03:56:03.982Z,6.80
2019-02-20T03:56:39.535Z,6.70
2019-02-20T03:57:15.112Z,6.70
2019-02-20T03:57:50.671Z,6.70
2019-02-20T03:58:26.204Z,6.70
2019-02-20T03:59:02.043Z,6.70
2019-02-20T03:59:37.827Z,6.70
2019-02-20T04:00:13.393Z,6.70
2019-02-20T04:00:48.969Z,6.70
2019-02-20T04:01:24.502Z,6.70
2019-02-20T04:02:00.093Z,6.70
2019-02-20T04:02:35.719Z,6.70
2019-02-20T04:03:11.250Z,6.70
2019-02-20T04:03:46.827Z,6.70
2019-02-20T04:04:22.362Z,6.70
2019-02-20T04:04:58.043Z,6.70
2019-02-20T04:05:33.601Z,6.70
2019-02-20T04:06:09.461Z,6.70
2019-02-20T04:06:45.012Z,6.70
2019-02-20T04:07:20.554Z,6.70
2019-02-20T04:07:56.103Z,6.70
2019-02-20T04:08:31.767Z,6.70
2019-02-20T04:09:07.358Z,6.70
2019-02-20T04:09:42.948Z,6.70
2019-02-20T04:10:18.726Z,6.80
2019-02-20T04:10:54.292Z,6.80
2019-02-20T04:11:30.108Z,6.80
2019-02-20T04:12:06.175Z,6.80
2019-02-20T04:12:42.040Z,6.80
2019-02-20T04:13:17.594Z,6.80
2019-02-20T04:13:53.130Z,6.80
2019-02-20T04:14:29.101Z,6.80
2019-02-20T04:15:05.078Z,6.80
2019-02-20T04:15:41.876Z,6.70
2019-02-20T04:16:17.437Z,6.80
2019-02-20T04:16:52.995Z,6.80
2019-02-20T04:17:28.535Z,6.80
2019-02-20T04:18:04.449Z,6.80
2019-02-20T04:18:40.354Z,6.70
2019-02-20T04:19:15.902Z,6.80
2019-02-20T04:19:51.455Z,6.80
2019-02-20T04:20:27.018Z,6.70
2019-02-20T04:21:02.546Z,6.70
2019-02-20T04:21:39.824Z,6.70
2019-02-20T04:22:15.707Z,6.70
2019-02-20T04:22:51.246Z,6.70
2019-02-20T04:23:26.864Z,6.70
2019-02-20T04:24:03.109Z,6.70
2019-02-20T04:24:38.819Z,6.70
2019-02-20T04:25:14.855Z,6.70
2019-02-20T04:25:50.684Z,6.70
2019-02-20T04:26:26.215Z,6.70
2019-02-20T04:27:01.756Z,6.70
2019-02-20T04:27:37.341Z,6.70
2019-02-20T04:28:12.887Z,6.70
2019-02-20T04:28:48.547Z,6.80
2019-02-20T04:29:24.468Z,6.80
2019-02-20T04:30:00.422Z,6.80
2019-02-20T04:30:36.199Z,6.70
2019-02-20T04:31:11.737Z,6.70
2019-02-20T04:31:47.343Z,6.70
2019-02-20T04:32:22.951Z,6.70
2019-02-20T04:32:58.668Z,6.70
2019-02-20T04:33:34.350Z,6.70
2019-02-20T04:34:09.915Z,6.70
2019-02-20T04:34:45.451Z,6.70
2019-02-20T04:35:21.239Z,6.70
2019-02-20T04:35:56.943Z,6.70
2019-02-20T04:36:32.925Z,6.70
2019-02-20T04:37:08.581Z,6.70
2019-02-20T04:37:44.136Z,6.70
2019-02-20T04:38:19.713Z,6.70
2019-02-20T04:38:55.245Z,6.70
2019-02-20T04:39:30.942Z,6.70
2019-02-20T04:40:06.596Z,6.70
2019-02-20T04:40:42.567Z,6.70
2019-02-20T04:41:18.110Z,6.60
2019-02-20T04:41:53.892Z,6.70
2019-02-20T04:42:29.433Z,6.70
2019-02-20T04:43:04.987Z,6.70
2019-02-20T04:43:40.549Z,6.60
2019-02-20T04:44:16.145Z,6.60
2019-02-20T04:44:51.689Z,6.60
2019-02-20T04:45:27.260Z,6.60
2019-02-20T04:46:02.858Z,6.60
2019-02-20T04:46:38.441Z,6.60
2019-02-20T04:47:13.979Z,6.60
2019-02-20T04:47:49.508Z,6.60
2019-02-20T04:48:25.403Z,6.60
2019-02-20T04:49:00.954Z,6.60
2019-02-20T04:49:37.089Z,6.60
2019-02-20T04:50:12.642Z,6.70
2019-02-20T04:50:48.517Z,6.60
2019-02-20T04:51:24.097Z,6.60
2019-02-20T04:51:59.636Z,6.60
2019-02-20T04:52:35.222Z,6.60
2019-02-20T04:53:10.769Z,6.60
2019-02-20T04:53:46.325Z,6.60
2019-02-20T04:54:22.196Z,6.60
2019-02-20T04:54:58.249Z,6.60
2019-02-20T04:55:34.225Z,6.60
2019-02-20T04:56:09.859Z,6.70
2019-02-20T04:56:45.431Z,6.70
2019-02-20T04:57:21.960Z,6.70
2019-02-20T04:58:17.703Z,6.70
2019-02-20T04:58:58.043Z,6.60
2019-02-20T04:59:34.737Z,6.70
2019-02-20T05:00:11.747Z,6.70
2019-02-20T05:00:47.338Z,6.70
2019-02-20T05:01:22.909Z,6.70
2019-02-20T05:01:58.843Z,6.70
2019-02-20T05:02:34.454Z,6.70
2019-02-20T05:03:10.284Z,6.70
2019-02-20T05:03:45.871Z,6.70
2019-02-20T05:04:21.510Z,6.60
2019-02-20T05:04:57.209Z,6.60
2019-02-20T05:05:32.766Z,6.60
2019-02-20T05:06:08.361Z,6.60
2019-02-20T05:06:43.981Z,6.60
2019-02-20T05:07:19.603Z,6.60
2019-02-20T05:07:55.782Z,6.60
2019-02-20T05:08:31.399Z,6.60
2019-02-20T05:09:07.223Z,6.60
2019-02-20T05:09:42.830Z,6.60
2019-02-20T05:10:20.363Z,6.60
2019-02-20T05:10:55.921Z,6.60
2019-02-20T05:11:31.455Z,6.60
2019-02-20T05:12:07.003Z,6.60
2019-02-20T05:12:42.940Z,6.60
2019-02-20T05:13:18.851Z,6.60
2019-02-20T05:13:54.461Z,6.60
2019-02-20T05:14:30.122Z,6.60
2019-02-20T05:15:06.119Z,6.60
2019-02-20T05:15:41.752Z,6.60
2019-02-20T05:16:17.349Z,6.60
2019-02-20T05:16:53.186Z,6.60
2019-02-20T05:17:28.871Z,6.60
2019-02-20T05:18:04.459Z,6.60
2019-02-20T05:18:40.015Z,6.60
2019-02-20T05:19:15.641Z,6.60
2019-02-20T05:19:51.200Z,6.60
2019-02-20T05:20:26.772Z,6.50
2019-02-20T05:21:02.325Z,6.60
2019-02-20T05:21:38.497Z,6.50
2019-02-20T05:22:14.428Z,6.50
2019-02-20T05:22:49.993Z,6.50
2019-02-20T05:23:25.601Z,6.50
2019-02-20T05:24:01.154Z,6.50
2019-02-20T05:24:36.717Z,6.50
2019-02-20T05:25:12.381Z,6.50
2019-02-20T05:25:47.969Z,6.50
2019-02-20T05:26:23.519Z,6.50
2019-02-20T05:27:00.162Z,6.50
2019-02-20T05:27:35.766Z,6.50
2019-02-20T05:28:11.346Z,6.40
2019-02-20T05:28:46.897Z,6.40
2019-02-20T05:29:22.558Z,6.40
2019-02-20T05:29:58.138Z,6.40
2019-02-20T05:30:34.053Z,6.40
2019-02-20T05:31:09.587Z,6.40
2019-02-20T05:31:45.131Z,6.40
2019-02-20T05:32:20.748Z,6.40
2019-02-20T05:32:56.287Z,6.40
2019-02-20T05:33:31.818Z,6.40
2019-02-20T05:34:07.404Z,6.40
2019-02-20T05:34:42.993Z,6.40
2019-02-20T05:35:18.522Z,6.40
2019-02-20T05:35:54.049Z,6.30
2019-02-20T05:36:29.590Z,6.40
2019-02-20T05:37:05.166Z,6.30
2019-02-20T05:37:40.737Z,6.30
2019-02-20T05:38:16.429Z,6.30
2019-02-20T05:38:52.119Z,6.30
2019-02-20T05:39:27.959Z,6.30
2019-02-20T05:40:03.849Z,6.30
2019-02-20T05:40:39.398Z,6.30
2019-02-20T05:41:15.000Z,6.30
2019-02-20T05:41:50.783Z,6.30
2019-02-20T05:42:26.663Z,6.30
2019-02-20T05:43:02.255Z,6.30
2019-02-20T05:43:37.821Z,6.30
2019-02-20T05:44:13.352Z,6.30
2019-02-20T05:44:48.948Z,6.30
2019-02-20T05:45:24.488Z,6.30
2019-02-20T05:46:00.051Z,6.30
2019-02-20T05:46:35.602Z,6.30
2019-02-20T05:47:11.193Z,6.30
2019-02-20T05:47:47.033Z,6.30
2019-02-20T05:48:22.582Z,6.30
2019-02-20T05:48:58.123Z,6.30
2019-02-20T05:49:33.981Z,6.30
2019-02-20T05:50:09.584Z,6.30
2019-02-20T05:50:45.194Z,6.30
2019-02-20T05:51:20.825Z,6.30
2019-02-20T05:51:56.407Z,6.30
2019-02-20T05:52:31.938Z,6.30
2019-02-20T05:53:07.891Z,6.30
2019-02-20T05:53:43.637Z,6.30
2019-02-20T05:54:19.475Z,6.30
2019-02-20T05:54:55.032Z,6.30
2019-02-20T05:55:30.618Z,6.30
2019-02-20T05:56:06.540Z,6.30
2019-02-20T05:56:42.114Z,6.30
2019-02-20T05:57:17.689Z,6.30
2019-02-20T05:57:53.254Z,6.30
2019-02-20T05:58:28.823Z,6.30
2019-02-20T05:59:04.362Z,6.30
2019-02-20T05:59:40.358Z,6.30
2019-02-20T06:00:15.939Z,6.30
2019-02-20T06:00:52.446Z,6.30
2019-02-20T06:01:28.298Z,6.30
2019-02-20T06:02:03.995Z,6.30
2019-02-20T06:02:39.577Z,6.30
2019-02-20T06:03:15.463Z,6.30
2019-02-20T06:03:52.058Z,6.30
2019-02-20T06:04:27.614Z,6.30
2019-02-20T06:05:03.204Z,6.30
2019-02-20T06:05:39.093Z,6.30
2019-02-20T06:06:14.673Z,6.30
2019-02-20T06:06:50.640Z,6.30
2019-02-20T06:07:26.707Z,6.30
2019-02-20T06:08:02.258Z,6.30
2019-02-20T06:08:38.161Z,6.30
2019-02-20T06:09:13.789Z,6.30
2019-02-20T06:09:49.410Z,6.30
2019-02-20T06:10:24.983Z,6.30
2019-02-20T06:11:00.533Z,6.30
2019-02-20T06:11:36.062Z,6.30
2019-02-20T06:12:11.602Z,6.30
2019-02-20T06:12:47.131Z,6.30
2019-02-20T06:13:22.666Z,6.30
2019-02-20T06:13:58.276Z,6.30
2019-02-20T06:14:33.850Z,6.30
2019-02-20T06:15:09.936Z,6.30
2019-02-20T06:15:45.505Z,6.30
2019-02-20T06:16:21.042Z,6.30
2019-02-20T06:16:56.905Z,6.30
2019-02-20T06:17:32.434Z,6.30
2019-02-20T06:18:07.972Z,6.30
2019-02-20T06:18:43.512Z,6.30
2019-02-20T06:19:19.129Z,6.30
2019-02-20T06:19:55.036Z,6.30
2019-02-20T06:20:30.865Z,6.30
2019-02-20T06:21:06.479Z,6.30
2019-02-20T06:21:42.082Z,6.30
2019-02-20T06:22:17.889Z,6.30
2019-02-20T06:22:53.566Z,6.30
2019-02-20T06:23:29.099Z,6.40
2019-02-20T06:24:04.639Z,6.30
2019-02-20T06:24:44.191Z,6.40
2019-02-20T06:25:17.498Z,6.30
2019-02-20T06:25:53.147Z,6.40
2019-02-20T06:26:28.974Z,6.30
2019-02-20T06:27:04.526Z,6.30
2019-02-20T06:27:40.180Z,6.40
2019-02-20T06:28:15.849Z,6.40
2019-02-20T06:28:51.392Z,6.40
2019-02-20T06:29:26.980Z,6.40
2019-02-20T06:30:02.529Z,6.30
2019-02-20T06:30:38.171Z,6.30
2019-02-20T06:31:13.725Z,6.30
2019-02-20T06:31:49.259Z,6.30
2019-02-20T06:32:24.811Z,6.30
2019-02-20T06:33:00.370Z,6.30
2019-02-20T06:33:36.033Z,6.30
2019-02-20T06:34:11.634Z,6.30
2019-02-20T06:34:47.186Z,6.40
2019-02-20T06:35:23.126Z,6.30
2019-02-20T06:35:58.692Z,6.30
2019-02-20T06:36:34.290Z,6.30
2019-02-20T06:37:09.826Z,6.30
2019-02-20T06:37:45.441Z,6.30
2019-02-20T06:38:21.014Z,6.30
2019-02-20T06:38:56.630Z,6.30
2019-02-20T06:39:32.213Z,6.40
2019-02-20T06:40:08.236Z,6.30
2019-02-20T06:40:44.125Z,6.30
2019-02-20T06:41:19.707Z,6.40
2019-02-20T06:41:55.247Z,6.40
2019-02-20T06:42:30.775Z,6.40
2019-02-20T06:43:06.302Z,6.40
2019-02-20T06:43:41.897Z,6.40
2019-02-20T06:44:17.454Z,6.40
2019-02-20T06:44:52.985Z,6.40
2019-02-20T06:45:28.580Z,6.40
2019-02-20T06:46:04.226Z,6.40
2019-02-20T06:46:40.179Z,6.40
2019-02-20T06:47:15.967Z,6.40
2019-02-20T06:47:51.549Z,6.40
2019-02-20T06:48:27.159Z,6.40
2019-02-20T06:49:02.695Z,6.40
2019-02-20T06:49:38.321Z,6.30
2019-02-20T06:50:13.876Z,6.40
2019-02-20T06:50:49.436Z,6.30
2019-02-20T06:51:25.258Z,6.40
2019-02-20T06:52:00.807Z,6.40
2019-02-20T06:52:36.337Z,6.40
2019-02-20T06:53:11.879Z,6.40
2019-02-20T06:53:47.505Z,6.40
2019-02-20T06:54:23.047Z,6.40
2019-02-20T06:54:58.578Z,6.40
2019-02-20T06:55:34.194Z,6.40
2019-02-20T06:56:10.163Z,6.40
2019-02-20T06:56:45.682Z,6.30
2019-02-20T06:57:21.218Z,6.30
2019-02-20T06:57:57.348Z,6.40
2019-02-20T06:58:33.274Z,6.30
2019-02-20T06:59:08.817Z,6.40
2019-02-20T06:59:45.692Z,6.30
2019-02-20T07:00:21.606Z,6.40
2019-02-20T07:00:57.141Z,6.30
2019-02-20T07:01:32.682Z,6.40
2019-02-20T07:02:08.243Z,6.40
2019-02-20T07:02:43.822Z,6.30
2019-02-20T07:03:19.726Z,6.40
2019-02-20T07:03:55.344Z,6.30
2019-02-20T07:04:31.314Z,6.40
2019-02-20T07:05:44.227Z,6.40
2019-02-20T07:06:25.258Z,6.40
2019-02-20T07:07:42.480Z,6.40
2019-02-20T07:08:59.747Z,6.30
2019-02-20T07:10:17.018Z,6.30
2019-02-20T07:11:09.493Z,6.30
2019-02-20T07:12:29.500Z,6.30
2019-02-20T07:13:25.634Z,6.30
2019-02-20T07:14:16.128Z,6.30
2019-02-20T07:15:35.240Z,6.40
2019-02-20T07:17:02.506Z,6.40
2019-02-20T07:18:00.487Z,6.40
2019-02-20T07:19:03.845Z,6.40
2019-02-20T07:20:19.437Z,6.40
2019-02-20T07:21:24.209Z,6.40
2019-02-20T07:22:35.375Z,6.40
2019-02-20T07:23:28.372Z,6.40
2019-02-20T07:24:30.882Z,6.50
2019-02-20T07:25:42.346Z,6.50
2019-02-20T07:26:44.956Z,6.50
2019-02-20T07:28:09.245Z,6.50
2019-02-20T07:29:34.888Z,6.50
2019-02-20T07:30:10.870Z,6.50
2019-02-20T07:30:46.397Z,6.60
2019-02-20T07:31:21.909Z,6.50
2019-02-20T07:31:57.459Z,6.60
2019-02-20T07:32:33.050Z,6.50
2019-02-20T07:33:08.607Z,6.60
2019-02-20T07:33:44.207Z,6.60
2019-02-20T07:34:19.726Z,6.60
2019-02-20T07:34:55.575Z,6.60
2019-02-20T07:35:31.125Z,6.60
2019-02-20T07:36:06.689Z,6.60
2019-02-20T07:36:42.615Z,6.60
2019-02-20T07:37:18.200Z,6.60
2019-02-20T07:37:53.791Z,6.60
2019-02-20T07:38:29.321Z,6.60
2019-02-20T07:39:05.126Z,6.60
2019-02-20T07:39:40.861Z,6.60
2019-02-20T07:40:16.900Z,6.60
2019-02-20T07:40:52.473Z,6.60
2019-02-20T07:41:27.999Z,6.60
2019-02-20T07:42:04.882Z,6.60
2019-02-20T07:42:40.483Z,6.60
2019-02-20T07:43:16.137Z,6.60
2019-02-20T07:43:51.654Z,6.60
2019-02-20T07:44:27.211Z,6.60
2019-02-20T07:45:02.816Z,6.70
2019-02-20T07:45:38.662Z,6.70
2019-02-20T07:46:14.243Z,6.70
2019-02-20T07:46:49.846Z,6.70
2019-02-20T07:47:25.773Z,6.70
2019-02-20T07:48:01.329Z,6.70
2019-02-20T07:48:36.929Z,6.70
2019-02-20T07:49:12.462Z,6.70
2019-02-20T07:49:48.357Z,6.70
2019-02-20T07:50:23.869Z,6.70
2019-02-20T07:50:59.454Z,6.70
2019-02-20T07:51:35.002Z,6.70
2019-02-20T07:52:10.541Z,6.70
2019-02-20T07:52:46.134Z,6.70
2019-02-20T07:53:21.678Z,6.80
2019-02-20T07:53:57.217Z,6.70
2019-02-20T07:54:33.141Z,6.80
2019-02-20T07:55:13.365Z,6.80
2019-02-20T07:55:46.108Z,6.80
2019-02-20T07:56:21.647Z,6.80
2019-02-20T07:56:57.241Z,6.80
2019-02-20T07:57:32.775Z,6.80
2019-02-20T07:58:08.326Z,6.90
2019-02-20T07:58:43.859Z,6.90
2019-02-20T07:59:20.409Z,6.90
2019-02-20T07:59:55.944Z,6.90
2019-02-20T08:00:31.542Z,6.90
2019-02-20T08:01:07.074Z,6.90
2019-02-20T08:01:42.837Z,6.90
2019-02-20T08:02:18.429Z,6.90
2019-02-20T08:02:53.976Z,6.90
2019-02-20T08:03:29.829Z,7.00
2019-02-20T08:04:05.815Z,7.00
2019-02-20T08:04:41.634Z,7.00
2019-02-20T08:05:17.598Z,7.00
2019-02-20T08:05:53.159Z,7.00
2019-02-20T08:06:28.723Z,7.00
2019-02-20T08:07:04.267Z,7.00
2019-02-20T08:07:39.787Z,7.10
2019-02-20T08:08:15.668Z,7.00
2019-02-20T08:08:51.223Z,7.00
2019-02-20T08:09:27.040Z,7.00
2019-02-20T08:10:02.584Z,7.00
2019-02-20T08:10:38.306Z,7.00